Time;durP1;ratioP1;P1;durP2;ratioP2;P2;SDS_P1;SDS_P2;PMS_P1;PMS_P2;Temp;Humidity;BMP_temperature;BMP_pressure;BME280_temperature;BME280_humidity;BME280_pressure;Samples;Min_cycle;Max_cycle;Signal;HPM_P1;HPM_P2
2023/01/20 00:01:17;;;;;;;2.13;2.03;;;19.20;38.50;;;;;;4943244;28;20970;-83
2023/01/20 00:03:44;;;;;;;1.90;1.80;;;19.20;38.60;;;;;;4934353;28;20464;-81
2023/01/20 00:06:11;;;;;;;1.90;1.80;;;19.10;38.40;;;;;;4935202;28;20240;-82
2023/01/20 00:08:37;;;;;;;2.20;2.10;;;19.10;38.40;;;;;;4946409;28;20443;-81
2023/01/20 00:11:04;;;;;;;2.33;2.13;;;19.10;38.40;;;;;;4950498;28;20455;-82
2023/01/20 00:13:30;;;;;;;2.10;2.00;;;19.20;38.60;;;;;;4947156;28;20487;-81
2023/01/20 00:15:55;;;;;;;2.10;2.00;;;19.10;38.40;;;;;;4940545;28;20554;-82
2023/01/20 00:18:21;;;;;;;1.90;1.80;;;19.10;38.40;;;;;;4948343;28;20235;-82
2023/01/20 00:20:47;;;;;;;1.70;1.60;;;19.10;38.50;;;;;;4944638;28;20317;-82
2023/01/20 00:23:12;;;;;;;1.90;1.80;;;19.10;38.40;;;;;;4937430;28;20878;-81
2023/01/20 00:25:38;;;;;;;1.90;1.80;;;19.10;38.40;;;;;;4937351;28;20404;-82
2023/01/20 00:28:03;;;;;;;2.17;1.97;;;19.10;38.40;;;;;;4945942;28;20224;-83
2023/01/20 00:30:29;;;;;;;2.17;2.07;;;19.10;38.40;;;;;;4950823;28;20344;-82
2023/01/20 00:32:55;;;;;;;1.90;1.80;;;19.10;38.40;;;;;;4954220;28;20465;-82
2023/01/20 00:35:20;;;;;;;1.93;1.83;;;19.10;38.40;;;;;;4951021;28;20241;-82
2023/01/20 00:37:46;;;;;;;2.00;1.90;;;19.10;38.40;;;;;;4956470;28;20221;-81
2023/01/20 00:40:11;;;;;;;1.80;1.70;;;19.10;38.40;;;;;;4952503;28;20260;-82
2023/01/20 00:42:37;;;;;;;2.00;1.90;;;19.10;38.40;;;;;;4950454;28;20284;-82
2023/01/20 00:45:03;;;;;;;2.07;1.93;;;19.10;38.50;;;;;;4943800;28;20312;-82
2023/01/20 00:47:28;;;;;;;1.93;1.83;;;19.10;38.40;;;;;;4954960;28;20320;-81
2023/01/20 00:49:54;;;;;;;2.00;1.90;;;19.10;38.40;;;;;;4955727;28;20392;-82
2023/01/20 00:52:19;;;;;;;1.90;1.80;;;19.10;38.40;;;;;;4954323;28;20271;-82
2023/01/20 00:54:45;;;;;;;2.03;1.93;;;19.10;38.40;;;;;;4956088;28;20748;-82
2023/01/20 00:57:11;;;;;;;2.00;1.90;;;19.10;38.40;;;;;;4958407;28;20251;-82
2023/01/20 00:59:36;;;;;;;2.17;2.07;;;19.10;38.40;;;;;;4936164;28;20307;-82
2023/01/20 01:02:02;;;;;;;2.40;2.20;;;19.10;38.40;;;;;;4938082;28;20213;-82
2023/01/20 01:04:28;;;;;;;2.57;2.10;;;19.10;38.50;;;;;;4954822;28;20233;-81
2023/01/20 01:06:53;;;;;;;2.10;2.00;;;19.10;38.40;;;;;;4954869;28;20740;-83
2023/01/20 01:09:20;;;;;;;2.10;2.00;;;19.10;38.40;;;;;;4931949;28;20721;-83
2023/01/20 01:11:47;;;;;;;2.10;2.00;;;19.10;38.40;;;;;;4944067;28;20291;-82
2023/01/20 01:14:12;;;;;;;1.80;1.70;;;19.10;38.40;;;;;;4952513;28;20460;-83
2023/01/20 01:16:38;;;;;;;1.70;1.60;;;19.10;38.40;;;;;;4953334;28;21469;-82
2023/01/20 01:19:03;;;;;;;1.90;1.80;;;19.10;38.40;;;;;;4947046;28;20226;-83
2023/01/20 01:21:29;;;;;;;1.87;1.77;;;19.10;38.50;;;;;;4935007;28;20259;-82
2023/01/20 01:23:55;;;;;;;2.00;1.90;;;19.10;38.40;;;;;;4939282;28;20226;-81
2023/01/20 01:26:20;;;;;;;2.13;1.90;;;19.10;38.40;;;;;;4951095;28;20229;-82
2023/01/20 01:28:47;;;;;;;2.00;1.80;;;19.10;38.40;;;;;;4947881;28;20243;-82
2023/01/20 01:31:14;;;;;;;1.97;1.77;;;19.10;38.40;;;;;;4928853;28;20607;-81
2023/01/20 01:33:39;;;;;;;2.10;2.00;;;19.10;38.40;;;;;;4946617;28;20479;-82
2023/01/20 01:36:07;;;;;;;1.80;1.70;;;19.10;38.40;;;;;;4951815;28;20436;-81
2023/01/20 01:38:33;;;;;;;2.33;2.23;;;19.10;38.50;;;;;;4957432;28;21769;-82
2023/01/20 01:40:58;;;;;;;1.60;1.50;;;19.10;38.40;;;;;;4955987;28;21028;-82
2023/01/20 01:43:28;;;;;;;2.40;2.30;;;19.10;38.40;;;;;;4939479;28;20702;-82
2023/01/20 01:45:54;;;;;;;2.10;2.00;;;19.10;38.40;;;;;;4936506;28;20704;-84
2023/01/20 01:48:41;;;;;;;2.43;2.23;;;19.10;38.40;;;;;;4950838;28;20486;-84
2023/01/20 01:51:11;;;;;;;3.23;2.00;;;19.10;38.40;;;;;;4946022;28;20700;-82
2023/01/20 01:53:45;;;;;;;2.07;1.97;;;19.10;38.40;;;;;;4939590;28;20507;-82
2023/01/20 01:56:13;;;;;;;2.47;2.27;;;19.10;38.40;;;;;;4939944;28;20461;-83
2023/01/20 01:58:43;;;;;;;2.17;1.83;;;19.10;38.40;;;;;;4950017;28;20481;-82
2023/01/20 02:01:09;;;;;;;2.33;2.20;;;19.10;38.40;;;;;;4955157;28;20954;-83
2023/01/20 02:03:43;;;;;;;2.27;2.17;;;19.10;38.40;;;;;;4959138;28;20565;-82
2023/01/20 02:06:10;;;;;;;2.43;2.30;;;19.10;38.40;;;;;;4946365;28;21281;-83
2023/01/20 02:08:36;;;;;;;2.23;2.13;;;19.10;38.40;;;;;;4958447;28;20479;-83
2023/01/20 02:11:01;;;;;;;2.20;2.10;;;19.10;38.40;;;;;;4945712;28;20472;-83
2023/01/20 02:13:27;;;;;;;1.93;1.83;;;19.10;38.40;;;;;;4954546;28;20821;-82
2023/01/20 02:16:11;;;;;;;2.27;2.17;;;19.10;38.40;;;;;;4955240;28;20232;-82
2023/01/20 02:18:43;;;;;;;2.20;2.10;;;19.10;38.40;;;;;;4953253;28;21549;-84
2023/01/20 02:21:35;;;;;;;2.17;2.07;;;19.10;38.30;;;;;;4956875;28;20473;-83
2023/01/20 02:24:06;;;;;;;2.03;1.93;;;19.10;38.30;;;;;;4955905;28;21256;-82
2023/01/20 02:26:58;;;;;;;2.03;1.93;;;19.10;38.40;;;;;;4954095;28;20473;-82
2023/01/20 02:30:02;;;;;;;1.83;1.73;;;19.10;38.40;;;;;;4936665;28;20435;-82
2023/01/20 02:32:30;;;;;;;2.10;2.00;;;19.10;38.40;;;;;;4945273;28;20475;-84
2023/01/20 02:35:22;;;;;;;2.40;2.30;;;19.10;38.40;;;;;;4946413;28;21329;-82
2023/01/20 02:38:02;;;;;;;2.20;2.10;;;19.10;38.40;;;;;;4936833;28;20439;-81
2023/01/20 02:40:51;;;;;;;2.03;1.93;;;19.10;38.40;;;;;;4947654;28;20428;-81
2023/01/20 02:43:33;;;;;;;2.70;2.60;;;19.10;38.40;;;;;;4942953;28;20467;-82
2023/01/20 02:46:12;;;;;;;1.70;1.60;;;19.10;38.40;;;;;;4959512;28;20488;-82
2023/01/20 02:48:46;;;;;;;1.93;1.83;;;19.10;38.40;;;;;;4955267;28;20924;-82
2023/01/20 02:51:19;;;;;;;2.50;2.30;;;19.10;38.40;;;;;;4961396;28;21316;-82
2023/01/20 02:53:55;;;;;;;4.93;2.10;;;19.10;38.40;;;;;;4955624;28;20479;-84
2023/01/20 02:56:25;;;;;;;2.30;2.20;;;19.10;38.40;;;;;;4961924;28;20440;-83
2023/01/20 02:59:04;;;;;;;2.53;2.33;;;19.10;38.40;;;;;;4958880;28;20463;-82
2023/01/20 03:01:35;;;;;;;2.10;2.00;;;19.10;38.40;;;;;;4960275;28;20481;-81
2023/01/20 03:04:02;;;;;;;1.80;1.70;;;19.10;38.40;;;;;;4959792;28;20445;-83
2023/01/20 03:06:34;;;;;;;3.33;2.30;;;19.10;38.40;;;;;;4949310;28;20480;-82
2023/01/20 03:09:04;;;;;;;2.10;2.00;;;19.10;38.40;;;;;;4953868;28;20410;-82
2023/01/20 03:11:32;;;;;;;2.10;2.00;;;19.10;38.40;;;;;;4956372;28;20904;-83
2023/01/20 03:14:06;;;;;;;2.27;2.17;;;19.10;38.40;;;;;;4958598;28;20475;-82
2023/01/20 03:16:32;;;;;;;2.27;2.17;;;19.10;38.40;;;;;;4959086;28;20455;-82
2023/01/20 03:18:58;;;;;;;2.03;1.93;;;19.10;38.40;;;;;;4961038;28;20460;-83
2023/01/20 03:21:23;;;;;;;2.33;2.23;;;19.10;38.40;;;;;;4960081;28;20581;-82
2023/01/20 03:24:00;;;;;;;3.13;2.93;;;19.10;38.40;;;;;;4939220;28;20225;-82
2023/01/20 03:26:26;;;;;;;1.90;1.80;;;19.10;38.40;;;;;;4961253;28;20235;-84
2023/01/20 03:28:53;;;;;;;2.23;2.13;;;19.10;38.40;;;;;;4956686;28;20478;-83
2023/01/20 03:31:22;;;;;;;2.50;2.30;;;19.10;38.40;;;;;;4957666;28;20260;-81
2023/01/20 03:33:50;;;;;;;2.27;2.17;;;19.10;38.40;;;;;;4960231;28;20525;-83
2023/01/20 03:36:17;;;;;;;2.00;1.90;;;19.10;38.40;;;;;;4961076;28;20792;-82
2023/01/20 03:38:44;;;;;;;2.50;2.40;;;19.10;38.40;;;;;;4958847;28;20466;-82
2023/01/20 03:41:33;;;;;;;2.30;2.20;;;19.10;38.40;;;;;;4961073;28;20441;-82
2023/01/20 03:44:36;;;;;;;2.00;1.90;;;19.10;38.40;;;;;;4955448;28;20524;-82
2023/01/20 03:47:39;;;;;;;1.80;1.70;;;19.10;38.40;;;;;;4941739;28;20948;-82
2023/01/20 03:50:28;;;;;;;2.23;2.13;;;19.10;38.40;;;;;;4948906;28;20954;-82
2023/01/20 03:53:15;;;;;;;2.40;2.30;;;19.10;38.40;;;;;;4959282;28;20882;-82
2023/01/20 03:55:50;;;;;;;2.10;1.87;;;19.10;38.40;;;;;;4947406;28;20553;-83
2023/01/20 03:58:23;;;;;;;1.83;1.73;;;19.10;38.40;;;;;;4937272;28;20449;-82
2023/01/20 04:00:50;;;;;;;2.10;2.00;;;19.10;38.40;;;;;;4937784;28;20466;-83
2023/01/20 04:03:31;;;;;;;2.00;1.90;;;19.10;38.40;;;;;;4954566;28;20513;-82
2023/01/20 04:06:01;;;;;;;2.07;1.97;;;19.10;38.30;;;;;;4954987;28;20430;-83
2023/01/20 04:08:32;;;;;;;2.20;2.10;;;19.10;38.40;;;;;;4952133;28;20431;-81
2023/01/20 04:11:02;;;;;;;2.20;2.07;;;19.10;38.40;;;;;;4954556;28;20425;-83
2023/01/20 04:13:28;;;;;;;2.50;2.30;;;19.10;38.40;;;;;;4955619;28;20514;-84
2023/01/20 04:15:55;;;;;;;2.73;2.53;;;19.00;38.30;;;;;;4941317;28;20462;-81
2023/01/20 04:18:22;;;;;;;1.87;1.77;;;19.10;38.30;;;;;;4955558;28;20216;-82
2023/01/20 04:21:01;;;;;;;2.23;2.13;;;19.10;38.40;;;;;;4936534;28;20437;-83
2023/01/20 04:23:41;;;;;;;2.80;2.63;;;19.10;38.40;;;;;;4943698;28;20425;-82
2023/01/20 04:26:07;;;;;;;2.17;2.07;;;19.10;38.30;;;;;;4949003;28;20429;-83
2023/01/20 04:28:32;;;;;;;2.10;2.00;;;19.10;38.40;;;;;;4940969;28;20453;-82
2023/01/20 04:30:58;;;;;;;2.50;2.40;;;19.10;38.30;;;;;;4940194;28;20260;-82
2023/01/20 04:33:23;;;;;;;2.10;2.00;;;19.10;38.30;;;;;;4948031;28;20236;-82
2023/01/20 04:35:49;;;;;;;1.90;1.80;;;19.10;38.30;;;;;;4959277;28;20789;-82
2023/01/20 04:38:14;;;;;;;2.60;2.40;;;19.10;38.20;;;;;;4957166;28;21169;-84
2023/01/20 04:40:40;;;;;;;2.20;2.10;;;19.10;38.20;;;;;;4958569;28;20225;-84
2023/01/20 04:43:06;;;;;;;2.23;2.03;;;19.10;38.20;;;;;;4952699;28;20241;-82
2023/01/20 04:45:31;;;;;;;2.00;1.90;;;19.10;38.30;;;;;;4938767;28;20323;-84
2023/01/20 04:47:57;;;;;;;2.43;2.33;;;19.10;38.10;;;;;;4952916;28;20301;-82
2023/01/20 04:50:22;;;;;;;2.40;2.17;;;19.10;38.10;;;;;;4952751;28;20967;-82
2023/01/20 04:52:48;;;;;;;1.90;1.70;;;19.10;38.10;;;;;;4958280;28;20264;-83
2023/01/20 04:55:13;;;;;;;2.10;2.00;;;19.10;38.00;;;;;;4957022;28;20251;-82
2023/01/20 04:57:39;;;;;;;2.10;2.00;;;19.10;38.00;;;;;;4957622;28;20279;-83
2023/01/20 05:00:06;;;;;;;2.30;2.20;;;19.10;37.90;;;;;;4958824;28;20232;-82
2023/01/20 05:02:32;;;;;;;1.80;1.70;;;19.20;38.10;;;;;;4941169;28;20657;-84
2023/01/20 05:04:57;;;;;;;2.10;2.00;;;19.20;38.00;;;;;;4939863;28;21066;-83
2023/01/20 05:07:23;;;;;;;2.10;2.00;;;19.20;38.00;;;;;;4935749;28;20593;-84
2023/01/20 05:09:48;;;;;;;2.20;2.10;;;19.20;37.90;;;;;;4939062;28;20233;-84
2023/01/20 05:12:14;;;;;;;2.20;2.10;;;19.20;37.90;;;;;;4938001;28;20234;-83
2023/01/20 05:14:39;;;;;;;2.30;2.20;;;19.20;37.80;;;;;;4953081;28;20228;-82
2023/01/20 05:17:05;;;;;;;2.50;2.30;;;19.20;37.80;;;;;;4960021;28;20229;-84
2023/01/20 05:19:30;;;;;;;2.00;1.90;;;19.30;37.90;;;;;;4953804;28;20225;-83
2023/01/20 05:21:57;;;;;;;2.10;2.00;;;19.30;37.80;;;;;;4950481;28;20229;-83
2023/01/20 05:24:23;;;;;;;1.90;1.80;;;19.30;37.80;;;;;;4957855;28;20224;-84
2023/01/20 05:26:49;;;;;;;2.27;2.17;;;19.30;37.70;;;;;;4948768;28;20434;-83
2023/01/20 05:29:14;;;;;;;1.90;1.80;;;19.30;37.70;;;;;;4944581;28;20279;-85
2023/01/20 05:31:42;;;;;;;1.97;1.87;;;19.30;37.70;;;;;;4941900;28;20217;-85
2023/01/20 05:34:08;;;;;;;1.77;1.67;;;19.30;37.70;;;;;;4946674;28;20232;-85
2023/01/20 05:36:34;;;;;;;1.97;1.87;;;19.30;37.80;;;;;;4956190;28;20441;-84
2023/01/20 05:38:59;;;;;;;1.80;1.70;;;19.30;37.70;;;;;;4959993;28;20493;-84
2023/01/20 05:41:25;;;;;;;1.87;1.77;;;19.30;37.70;;;;;;4953428;28;20664;-85
2023/01/20 05:43:52;;;;;;;1.87;1.77;;;19.30;37.70;;;;;;4958534;28;20688;-84
2023/01/20 05:46:18;;;;;;;1.90;1.80;;;19.30;37.70;;;;;;4951649;28;20747;-83
2023/01/20 05:48:44;;;;;;;1.90;1.80;;;19.30;37.70;;;;;;4957809;28;20488;-85
2023/01/20 05:51:09;;;;;;;1.67;1.57;;;19.30;37.70;;;;;;4952427;28;20323;-84
2023/01/20 05:53:35;;;;;;;2.10;2.00;;;19.40;37.70;;;;;;4956915;28;20293;-85
2023/01/20 05:56:02;;;;;;;2.00;1.90;;;19.30;37.70;;;;;;4954748;28;20275;-84
2023/01/20 05:58:29;;;;;;;1.90;1.80;;;19.30;37.70;;;;;;4957061;28;20229;-84
2023/01/20 06:00:54;;;;;;;2.00;1.90;;;19.30;37.70;;;;;;4948840;28;20516;-85
2023/01/20 06:03:20;;;;;;;2.87;2.00;;;19.30;37.70;;;;;;4952947;28;20971;-84
2023/01/20 06:05:48;;;;;;;2.10;1.90;;;19.30;37.70;;;;;;4957407;28;20375;-85
2023/01/20 06:08:13;;;;;;;2.07;1.87;;;19.30;37.70;;;;;;4956131;28;20311;-86
2023/01/20 06:10:39;;;;;;;2.23;2.13;;;19.30;37.70;;;;;;4956829;28;20481;-85
2023/01/20 06:13:04;;;;;;;1.87;1.77;;;19.30;37.70;;;;;;4953595;28;20236;-86
2023/01/20 06:15:30;;;;;;;2.10;2.00;;;19.30;37.70;;;;;;4949781;28;20767;-87
2023/01/20 06:17:55;;;;;;;2.10;2.00;;;19.30;37.70;;;;;;4954380;28;20240;-87
2023/01/20 06:20:21;;;;;;;2.40;1.80;;;19.30;37.70;;;;;;4954741;28;20225;-86
2023/01/20 06:22:47;;;;;;;2.00;1.90;;;19.30;37.70;;;;;;4956505;28;20233;-85
2023/01/20 06:25:12;;;;;;;2.00;1.90;;;19.30;37.60;;;;;;4956543;28;20224;-86
2023/01/20 06:27:38;;;;;;;1.97;1.87;;;19.30;37.70;;;;;;4955750;28;20251;-82
2023/01/20 06:30:05;;;;;;;1.93;1.83;;;19.30;37.60;;;;;;4958963;28;20248;-84
2023/01/20 06:32:30;;;;;;;2.00;1.90;;;19.30;37.60;;;;;;4955171;28;20240;-85
2023/01/20 06:34:56;;;;;;;2.23;2.03;;;19.30;37.70;;;;;;4957115;28;20437;-84
2023/01/20 06:37:21;;;;;;;2.53;1.90;;;19.30;37.60;;;;;;4957950;28;20225;-85
2023/01/20 06:39:47;;;;;;;1.90;1.80;;;19.30;37.70;;;;;;4950908;28;20221;-84
2023/01/20 06:42:12;;;;;;;2.47;2.37;;;19.30;37.70;;;;;;4958879;28;20895;-83
2023/01/20 06:44:38;;;;;;;1.63;1.53;;;19.30;37.60;;;;;;4953852;28;20780;-84
2023/01/20 06:47:03;;;;;;;1.90;1.80;;;19.30;37.70;;;;;;4960539;28;20215;-84
2023/01/20 06:49:29;;;;;;;1.90;1.80;;;19.30;37.60;;;;;;4958894;28;20251;-85
2023/01/20 06:51:55;;;;;;;1.90;1.80;;;19.30;37.70;;;;;;4959512;28;20384;-83
2023/01/20 06:54:20;;;;;;;2.73;1.70;;;19.30;37.60;;;;;;4957926;28;20329;-83
2023/01/20 06:56:46;;;;;;;2.13;2.03;;;19.30;37.70;;;;;;4956465;28;20688;-84
2023/01/20 06:59:12;;;;;;;1.90;1.80;;;19.30;37.70;;;;;;4958552;28;20235;-84
2023/01/20 07:01:38;;;;;;;2.07;1.97;;;19.30;37.60;;;;;;4957399;28;20229;-85
2023/01/20 07:04:04;;;;;;;2.00;1.90;;;19.30;37.70;;;;;;4957869;28;20254;-82
2023/01/20 07:06:30;;;;;;;2.03;1.93;;;19.30;37.70;;;;;;4958720;28;20533;-83
2023/01/20 07:08:57;;;;;;;1.70;1.60;;;19.30;37.60;;;;;;4939256;28;20271;-83
2023/01/20 07:11:23;;;;;;;1.93;1.83;;;19.30;37.70;;;;;;4957909;28;20436;-83
2023/01/20 07:13:48;;;;;;;2.57;2.37;;;19.30;37.70;;;;;;4955297;28;20478;-82
2023/01/20 07:16:14;;;;;;;1.80;1.70;;;19.30;37.70;;;;;;4959430;28;20271;-84
2023/01/20 07:18:40;;;;;;;1.90;1.80;;;19.30;37.60;;;;;;4957810;28;20334;-85
2023/01/20 07:21:06;;;;;;;2.10;2.00;;;19.30;37.70;;;;;;4956178;28;20225;-83
2023/01/20 07:23:32;;;;;;;3.77;1.90;;;19.30;37.70;;;;;;4939716;28;20430;-83
2023/01/20 07:25:59;;;;;;;2.00;1.90;;;19.30;37.70;;;;;;4948392;28;20447;-83
2023/01/20 07:28:24;;;;;;;1.77;1.67;;;19.30;37.70;;;;;;4959843;28;20441;-82
2023/01/20 07:30:50;;;;;;;1.87;1.77;;;19.30;38.50;;;;;;4945031;28;20434;-84
2023/01/20 07:33:15;;;;;;;1.77;1.67;;;19.30;37.70;;;;;;4954307;28;20245;-82
2023/01/20 07:35:41;;;;;;;2.40;2.30;;;19.30;37.70;;;;;;4942274;28;20225;-83
2023/01/20 07:38:06;;;;;;;2.20;2.00;;;19.30;37.60;;;;;;4948907;28;20225;-83
2023/01/20 07:40:32;;;;;;;1.77;1.67;;;19.30;37.70;;;;;;4953885;28;20236;-84
2023/01/20 07:42:57;;;;;;;1.77;1.67;;;19.30;37.60;;;;;;4955947;28;20229;-83
2023/01/20 07:45:23;;;;;;;2.20;2.00;;;19.30;37.60;;;;;;4941673;28;20687;-83
2023/01/20 07:47:49;;;;;;;3.30;1.60;;;19.30;37.70;;;;;;4944406;28;21317;-83
2023/01/20 07:50:14;;;;;;;2.27;2.17;;;19.30;37.60;;;;;;4929175;28;20292;-83
2023/01/20 07:52:40;;;;;;;2.20;2.10;;;19.30;37.60;;;;;;4951964;28;20713;-84
2023/01/20 07:55:06;;;;;;;1.80;1.70;;;19.30;37.60;;;;;;4940667;28;20240;-89
2023/01/20 07:57:32;;;;;;;2.10;1.90;;;19.30;37.60;;;;;;4956308;28;20465;-84
2023/01/20 07:59:58;;;;;;;1.73;1.63;;;19.30;37.60;;;;;;4960582;28;20224;-84
2023/01/20 08:02:23;;;;;;;2.17;2.00;;;19.30;37.70;;;;;;4960305;28;20312;-84
2023/01/20 08:04:49;;;;;;;1.80;1.70;;;19.30;37.60;;;;;;4949924;28;20222;-84
2023/01/20 08:07:14;;;;;;;1.83;1.73;;;19.30;37.60;;;;;;4959628;28;20688;-84
2023/01/20 08:09:40;;;;;;;2.10;1.90;;;19.30;37.60;;;;;;4959909;28;20696;-84
2023/01/20 08:12:06;;;;;;;2.23;1.97;;;19.30;37.60;;;;;;4946161;28;20430;-85
2023/01/20 08:14:31;;;;;;;2.30;2.10;;;19.30;37.60;;;;;;4940040;28;20945;-84
2023/01/20 08:16:58;;;;;;;2.10;2.00;;;19.30;37.60;;;;;;4950894;28;20990;-85
2023/01/20 08:19:28;;;;;;;1.87;1.77;;;19.30;37.60;;;;;;4953524;28;20286;-86
2023/01/20 08:21:53;;;;;;;1.80;1.70;;;19.30;37.60;;;;;;4961955;28;20441;-84
2023/01/20 08:24:19;;;;;;;2.07;1.97;;;19.30;37.60;;;;;;4959128;28;20448;-84
2023/01/20 08:26:44;;;;;;;2.13;1.90;;;19.30;37.60;;;;;;4961030;28;20609;-86
2023/01/20 08:29:10;;;;;;;1.97;1.87;;;19.30;37.60;;;;;;4955692;28;20272;-87
2023/01/20 08:31:36;;;;;;;2.00;1.90;;;19.30;37.60;;;;;;4959092;28;20228;-83
2023/01/20 08:34:02;;;;;;;1.90;1.80;;;19.30;37.50;;;;;;4955184;28;20803;-83
2023/01/20 08:36:31;;;;;;;2.00;1.80;;;19.30;37.60;;;;;;4958653;28;20463;-83
2023/01/20 08:38:58;;;;;;;8.23;2.17;;;19.30;37.60;;;;;;4960640;28;22945;-83
2023/01/20 08:41:27;;;;;;;1.80;1.70;;;19.30;37.70;;;;;;4962914;28;20937;-83
2023/01/20 08:43:53;;;;;;;2.10;1.90;;;19.30;37.50;;;;;;4961741;28;21148;-84
2023/01/20 08:46:20;;;;;;;2.10;1.77;;;19.30;37.50;;;;;;4956483;28;20446;-83
2023/01/20 08:48:47;;;;;;;2.07;1.80;;;19.30;37.60;;;;;;4951289;28;20473;-83
2023/01/20 08:51:16;;;;;;;2.40;1.80;;;19.30;37.60;;;;;;4944704;28;20464;-83
2023/01/20 08:53:42;;;;;;;1.83;1.73;;;19.30;37.50;;;;;;4950388;28;20471;-83
2023/01/20 08:56:09;;;;;;;1.90;1.80;;;19.30;37.50;;;;;;4960179;28;20510;-83
2023/01/20 08:58:34;;;;;;;1.80;1.70;;;19.30;37.50;;;;;;4956361;28;20229;-84
2023/01/20 09:01:00;;;;;;;2.50;1.77;;;19.30;37.50;;;;;;4950086;28;21054;-84
2023/01/20 09:03:26;;;;;;;2.00;1.90;;;19.30;37.50;;;;;;4960242;28;20228;-84
2023/01/20 09:05:52;;;;;;;1.90;1.80;;;19.30;37.50;;;;;;4956208;28;20217;-83
2023/01/20 09:08:18;;;;;;;2.10;1.93;;;19.30;37.50;;;;;;4960458;28;20240;-83
2023/01/20 09:10:46;;;;;;;2.00;1.80;;;19.30;37.50;;;;;;4961695;28;20306;-83
2023/01/20 09:13:11;;;;;;;1.70;1.60;;;19.30;37.50;;;;;;4959669;28;20484;-83
2023/01/20 09:15:37;;;;;;;1.87;1.77;;;19.30;37.50;;;;;;4960547;28;20466;-84
2023/01/20 09:18:03;;;;;;;2.20;2.00;;;19.30;37.50;;;;;;4962742;28;20320;-83
2023/01/20 09:20:29;;;;;;;1.83;1.73;;;19.30;37.60;;;;;;4953795;28;20470;-83
2023/01/20 09:22:55;;;;;;;1.73;1.63;;;19.30;38.30;;;;;;4941122;28;20236;-84
2023/01/20 09:25:21;;;;;;;2.00;1.90;;;19.30;37.60;;;;;;4949951;28;20544;-83
2023/01/20 09:27:46;;;;;;;1.90;1.80;;;19.30;37.50;;;;;;4959549;28;21154;-83
2023/01/20 09:30:13;;;;;;;2.23;2.03;;;19.30;37.50;;;;;;4960415;28;20227;-83
2023/01/20 09:32:38;;;;;;;1.70;1.60;;;19.30;37.50;;;;;;4947709;28;20241;-84
2023/01/20 09:35:04;;;;;;;1.80;1.70;;;19.30;37.50;;;;;;4951237;28;20951;-83
2023/01/20 09:46:36;;;;;;;2.07;1.97;;;19.30;37.60;;;;;;4942617;28;20811;-83
2023/01/20 09:55:34;;;;;;;1.90;1.80;;;19.30;37.60;;;;;;4944136;28;20531;-84
2023/01/20 09:58:07;;;;;;;2.43;2.23;;;19.20;37.50;;;;;;4948614;28;20441;-83
2023/01/20 10:00:35;;;;;;;1.87;1.77;;;19.20;37.50;;;;;;4941599;28;22099;-83
2023/01/20 10:03:20;;;;;;;2.60;1.70;;;19.30;37.60;;;;;;4953429;28;20480;-83
2023/01/20 10:05:48;;;;;;;1.90;1.80;;;19.20;37.40;;;;;;4943873;28;20505;-83
2023/01/20 10:08:27;;;;;;;2.17;2.07;;;19.30;37.60;;;;;;4957560;28;20873;-83
2023/01/20 10:11:14;;;;;;;1.90;1.80;;;19.20;37.50;;;;;;4960404;28;20440;-83
2023/01/20 10:13:46;;;;;;;1.80;1.70;;;19.30;37.50;;;;;;4945428;28;20442;-83
2023/01/20 10:16:21;;;;;;;2.00;1.90;;;19.30;37.60;;;;;;4950947;28;20452;-84
2023/01/20 10:18:51;;;;;;;2.13;2.03;;;19.20;37.50;;;;;;4959037;28;20489;-83
2023/01/20 10:21:31;;;;;;;2.40;1.83;;;19.30;37.60;;;;;;4954016;28;20463;-83
2023/01/20 10:24:03;;;;;;;2.10;2.00;;;19.30;37.60;;;;;;4955323;28;20492;-83
2023/01/20 10:26:50;;;;;;;1.80;1.70;;;19.20;37.40;;;;;;4953683;28;20948;-83
2023/01/20 10:29:35;;;;;;;3.77;1.97;;;19.30;37.50;;;;;;4957724;28;20455;-83
2023/01/20 10:32:04;;;;;;;2.43;1.70;;;19.20;37.30;;;;;;4956448;28;20480;-83
2023/01/20 10:34:40;;;;;;;2.57;1.97;;;19.20;37.40;;;;;;4941820;28;20472;-83
2023/01/20 10:37:09;;;;;;;1.80;1.60;;;19.30;37.60;;;;;;4941351;28;20554;-83
2023/01/20 10:40:07;;;;;;;2.17;2.07;;;19.20;37.50;;;;;;4952554;28;20418;-83
2023/01/20 10:42:33;;;;;;;2.00;1.90;;;19.20;37.40;;;;;;4945024;28;20481;-82
2023/01/20 10:44:59;;;;;;;2.00;1.90;;;19.20;37.40;;;;;;4954797;28;21583;-82
2023/01/20 10:47:51;;;;;;;1.43;1.33;;;19.20;37.50;;;;;;4930422;28;20283;-83
2023/01/20 10:50:52;;;;;;;2.13;2.03;;;19.20;37.40;;;;;;4940948;28;20479;-83
2023/01/20 10:53:41;;;;;;;2.00;1.60;;;19.20;37.40;;;;;;4951556;28;20482;-83
2023/01/20 10:56:21;;;;;;;2.20;2.00;;;19.20;37.50;;;;;;4956736;28;20449;-84
2023/01/20 10:58:47;;;;;;;3.50;1.80;;;19.20;37.50;;;;;;4936274;28;20470;-83
2023/01/20 11:01:16;;;;;;;1.77;1.67;;;19.20;37.50;;;;;;4962788;28;20583;-83
2023/01/20 11:03:45;;;;;;;1.70;1.60;;;19.20;37.50;;;;;;4958096;28;20339;-83
2023/01/20 11:06:18;;;;;;;2.70;2.00;;;19.20;37.50;;;;;;4945573;28;20466;-85
2023/01/20 11:08:44;;;;;;;2.07;1.90;;;19.20;37.40;;;;;;4958574;28;20440;-83
2023/01/20 11:11:21;;;;;;;2.30;1.70;;;19.20;37.50;;;;;;4950579;28;20445;-82
2023/01/20 11:13:50;;;;;;;1.60;1.50;;;19.30;37.60;;;;;;4958063;28;20249;-83
2023/01/20 11:16:25;;;;;;;1.80;1.70;;;19.20;37.50;;;;;;4960952;28;20428;-83
2023/01/20 11:19:07;;;;;;;1.90;1.80;;;19.20;37.40;;;;;;4956868;28;20448;-86
2023/01/20 11:21:35;;;;;;;1.73;1.63;;;19.20;37.40;;;;;;4949387;28;20430;-83
2023/01/20 11:24:03;;;;;;;1.53;1.43;;;19.20;37.40;;;;;;4943999;28;20546;-85
2023/01/20 11:26:35;;;;;;;1.70;1.60;;;19.20;37.40;;;;;;4942416;28;20928;-84
2023/01/20 11:29:21;;;;;;;1.60;1.50;;;19.20;37.40;;;;;;4940767;28;20455;-85
2023/01/20 11:31:50;;;;;;;1.50;1.40;;;19.20;37.30;;;;;;4940263;28;20448;-84
2023/01/20 11:34:26;;;;;;;1.67;1.50;;;19.30;37.50;;;;;;4951593;28;20467;-84
2023/01/20 11:37:16;;;;;;;2.00;1.50;;;19.20;37.40;;;;;;4951621;28;20932;-83
2023/01/20 11:39:48;;;;;;;2.47;1.53;;;19.20;37.40;;;;;;4953270;28;20469;-83
2023/01/20 11:42:29;;;;;;;2.37;1.60;;;19.20;37.40;;;;;;4963883;28;20433;-83
2023/01/20 11:45:00;;;;;;;2.40;1.70;;;19.20;37.50;;;;;;4956162;28;20453;-85
2023/01/20 11:47:29;;;;;;;1.50;1.40;;;19.20;38.20;;;;;;4963369;28;20506;-84
2023/01/20 11:50:15;;;;;;;2.73;1.53;;;19.20;37.50;;;;;;4959909;28;21464;-83
2023/01/20 11:52:44;;;;;;;1.70;1.60;;;19.20;37.50;;;;;;4954744;28;21029;-84
2023/01/20 11:55:23;;;;;;;1.57;1.47;;;19.20;37.40;;;;;;4962494;28;20459;-83
2023/01/20 11:58:01;;;;;;;1.70;1.60;;;19.20;37.40;;;;;;4954577;28;20470;-84
2023/01/20 12:00:31;;;;;;;1.70;1.60;;;19.20;37.40;;;;;;4958823;28;21225;-84
2023/01/20 12:03:14;;;;;;;1.70;1.60;;;19.20;37.50;;;;;;4959921;28;23740;-84
2023/01/20 12:05:49;;;;;;;1.60;1.50;;;19.20;37.40;;;;;;4950902;28;20471;-85
2023/01/20 12:08:26;;;;;;;2.07;1.97;;;19.20;37.40;;;;;;4940126;28;20453;-84
2023/01/20 12:10:54;;;;;;;1.70;1.60;;;19.20;37.50;;;;;;4958379;28;20585;-85
2023/01/20 12:13:25;;;;;;;1.77;1.67;;;19.20;37.50;;;;;;4945147;28;20461;-84
2023/01/20 12:15:54;;;;;;;1.63;1.53;;;19.20;37.50;;;;;;4943456;28;20462;-84
2023/01/20 12:18:39;;;;;;;2.17;1.50;;;19.20;37.50;;;;;;4952753;28;20562;-84
2023/01/20 12:21:18;;;;;;;1.80;1.70;;;19.20;37.50;;;;;;4940426;28;20974;-85
2023/01/20 12:23:50;;;;;;;1.60;1.50;;;19.20;37.40;;;;;;4947415;28;20441;-85
2023/01/20 12:26:18;;;;;;;1.70;1.60;;;19.20;37.40;;;;;;4963084;28;20425;-84
2023/01/20 12:28:53;;;;;;;1.77;1.67;;;19.20;37.40;;;;;;4960448;28;20540;-86
2023/01/20 12:31:22;;;;;;;2.27;1.97;;;19.20;37.50;;;;;;4960397;28;20420;-84
2023/01/20 12:34:16;;;;;;;1.40;1.30;;;19.20;38.20;;;;;;4957813;28;20482;-84
2023/01/20 12:37:02;;;;;;;1.60;1.50;;;19.20;37.40;;;;;;4961192;28;20437;-85
2023/01/20 12:39:43;;;;;;;2.60;1.47;;;19.20;37.40;;;;;;4959404;28;20441;-84
2023/01/20 12:42:09;;;;;;;1.50;1.40;;;19.20;37.50;;;;;;4942495;28;20483;-85
2023/01/20 12:44:56;;;;;;;1.57;1.47;;;19.20;37.50;;;;;;4942445;28;20574;-84
2023/01/20 12:47:52;;;;;;;1.77;1.67;;;19.20;37.50;;;;;;4961979;28;20219;-84
2023/01/20 12:50:46;;;;;;;2.03;1.60;;;19.20;37.40;;;;;;4957988;28;20549;-84
2023/01/20 12:53:20;;;;;;;1.60;1.50;;;19.20;37.40;;;;;;4905901;28;20471;-84
2023/01/20 12:56:13;;;;;;;1.50;1.40;;;19.20;37.50;;;;;;4943351;28;20489;-84
2023/01/20 12:58:50;;;;;;;1.53;1.43;;;19.20;37.40;;;;;;4962574;28;20466;-83
2023/01/20 13:01:54;;;;;;;1.70;1.60;;;19.20;37.40;;;;;;4934080;28;21841;-83
2023/01/20 13:04:52;;;;;;;1.40;1.30;;;19.20;37.40;;;;;;4946675;28;20579;-83
2023/01/20 13:07:50;;;;;;;1.50;1.40;;;19.20;37.40;;;;;;4941338;28;20462;-83
2023/01/20 13:10:40;;;;;;;2.10;1.60;;;19.20;37.50;;;;;;4958027;28;20497;-86
2023/01/20 13:13:23;;;;;;;1.70;1.60;;;19.20;37.40;;;;;;4945166;28;20482;-84
2023/01/20 13:15:59;;;;;;;1.90;1.80;;;19.20;37.40;;;;;;4954096;28;20443;-84
2023/01/20 13:18:41;;;;;;;1.97;1.87;;;19.20;37.40;;;;;;4941335;28;20471;-85
2023/01/20 13:21:15;;;;;;;1.70;1.60;;;19.20;37.40;;;;;;4956045;28;20454;-85